Time;durP1;ratioP1;P1;durP2;ratioP2;P2;SDS_P1;SDS_P2;PMS_P1;PMS_P2;Temp;Humidity;BMP_temperature;BMP_pressure;BME280_temperature;BME280_humidity;BME280_pressure;Samples;Min_cycle;Max_cycle;Signal;HPM_P1;HPM_P2
2024/01/16 00:00:23;;;;;;;28.33;26.83;;;;;;;;;;4974939;28;20266;-79
2024/01/16 00:02:50;;;;;;;27.58;25.70;;;;;;;;;;4975253;28;20214;-79
2024/01/16 00:05:19;;;;;;;27.52;25.98;;;;;;;;;;4974316;28;20583;-79
2024/01/16 00:07:46;;;;;;;26.05;24.95;;;;;;;;;;4989627;28;20264;-80
2024/01/16 00:10:13;;;;;;;27.00;25.55;;;;;;;;;;4993911;28;20296;-79
2024/01/16 00:12:41;;;;;;;25.50;24.00;;;;;;;;;;4994702;28;20272;-79
2024/01/16 00:15:08;;;;;;;26.70;25.17;;;;;;;;;;4993735;28;20209;-80
2024/01/16 00:17:35;;;;;;;26.10;24.90;;;;;;;;;;4992911;28;20210;-78
2024/01/16 00:20:05;;;;;;;27.30;26.00;;;;;;;;;;4994517;28;20289;-79
2024/01/16 00:22:33;;;;;;;27.13;25.73;;;;;;;;;;4994333;28;20210;-79
2024/01/16 00:25:00;;;;;;;24.75;23.65;;;;;;;;;;4994001;28;20218;-80
2024/01/16 00:27:27;;;;;;;24.98;23.83;;;;;;;;;;4993417;28;20210;-79
2024/01/16 00:29:54;;;;;;;27.30;25.90;;;;;;;;;;4993813;28;20285;-79
2024/01/16 00:32:21;;;;;;;26.35;24.92;;;;;;;;;;4994044;28;20244;-79
2024/01/16 00:34:48;;;;;;;24.88;23.75;;;;;;;;;;4994245;28;20194;-78
2024/01/16 00:37:15;;;;;;;26.65;25.25;;;;;;;;;;4992997;28;20629;-79
2024/01/16 00:39:44;;;;;;;23.88;22.77;;;;;;;;;;4993706;28;20282;-79
2024/01/16 00:42:11;;;;;;;24.95;23.75;;;;;;;;;;4993934;28;20206;-79
2024/01/16 00:44:38;;;;;;;26.15;24.75;;;;;;;;;;4993646;28;20269;-79
2024/01/16 00:47:05;;;;;;;26.70;25.27;;;;;;;;;;4993012;28;20222;-80
2024/01/16 00:49:32;;;;;;;28.20;26.88;;;;;;;;;;4974071;28;20289;-79
2024/01/16 00:51:59;;;;;;;26.30;25.20;;;;;;;;;;4974875;28;20211;-78
2024/01/16 00:54:26;;;;;;;24.20;23.20;;;;;;;;;;4981022;28;20786;-79
2024/01/16 00:56:59;;;;;;;24.98;23.80;;;;;;;;;;4992658;28;20237;-80
2024/01/16 00:59:26;;;;;;;24.60;23.30;;;;;;;;;;4993190;28;20237;-79
2024/01/16 01:01:53;;;;;;;25.50;23.95;;;;;;;;;;4993764;28;20209;-79
2024/01/16 01:04:20;;;;;;;23.50;22.40;;;;;;;;;;4993719;28;20234;-79
2024/01/16 01:06:47;;;;;;;25.45;23.60;;;;;;;;;;4992603;28;20213;-79
2024/01/16 01:09:14;;;;;;;25.13;23.77;;;;;;;;;;4992602;28;20230;-79
2024/01/16 01:11:41;;;;;;;24.67;23.00;;;;;;;;;;4993550;28;20206;-79
2024/01/16 01:14:09;;;;;;;22.88;21.70;;;;;;;;;;4993595;28;20198;-78
2024/01/16 01:16:36;;;;;;;26.15;24.25;;;;;;;;;;4992521;28;20909;-79
2024/01/16 01:19:04;;;;;;;26.25;24.15;;;;;;;;;;4993787;28;20226;-79
2024/01/16 01:21:31;;;;;;;22.98;21.67;;;;;;;;;;4993525;28;20705;-79
2024/01/16 01:23:57;;;;;;;23.00;22.00;;;;;;;;;;4993480;28;20203;-79
2024/01/16 01:26:24;;;;;;;23.80;22.40;;;;;;;;;;4992756;28;20206;-79
2024/01/16 01:28:52;;;;;;;27.33;25.15;;;;;;;;;;4992497;28;20226;-80
2024/01/16 01:31:20;;;;;;;23.30;22.13;;;;;;;;;;4993140;28;20685;-79
2024/01/16 01:33:47;;;;;;;24.13;22.80;;;;;;;;;;4993700;28;20241;-80
2024/01/16 01:36:14;;;;;;;23.42;22.13;;;;;;;;;;4983977;28;20215;-80
2024/01/16 01:38:41;;;;;;;21.73;20.70;;;;;;;;;;4973235;28;20704;-79
2024/01/16 01:41:11;;;;;;;24.02;22.42;;;;;;;;;;4973968;28;20254;-79
2024/01/16 01:43:38;;;;;;;24.65;23.35;;;;;;;;;;4973650;28;20214;-79
2024/01/16 01:46:10;;;;;;;23.83;22.33;;;;;;;;;;4975606;28;20302;-80
2024/01/16 01:48:39;;;;;;;23.50;22.20;;;;;;;;;;4976885;28;20238;-79
2024/01/16 01:51:06;;;;;;;23.83;22.52;;;;;;;;;;4977244;28;20221;-79
2024/01/16 01:53:35;;;;;;;22.48;21.42;;;;;;;;;;4977184;28;20211;-79
2024/01/16 01:56:03;;;;;;;22.30;21.13;;;;;;;;;;4976893;28;21011;-79
2024/01/16 01:58:30;;;;;;;21.52;20.52;;;;;;;;;;4975986;28;20650;-79
2024/01/16 02:00:57;;;;;;;22.00;20.90;;;;;;;;;;4977112;28;20207;-79
2024/01/16 02:03:25;;;;;;;22.20;20.67;;;;;;;;;;4976688;28;20236;-78
2024/01/16 02:05:54;;;;;;;21.75;20.23;;;;;;;;;;4976881;28;20230;-80
2024/01/16 02:08:21;;;;;;;22.50;21.08;;;;;;;;;;4975633;28;20210;-79
2024/01/16 02:10:49;;;;;;;22.58;20.70;;;;;;;;;;4977041;28;20228;-79
2024/01/16 02:13:18;;;;;;;21.42;20.15;;;;;;;;;;4977030;28;20306;-79
2024/01/16 02:15:45;;;;;;;20.92;19.60;;;;;;;;;;4977248;28;20249;-79
2024/01/16 02:18:12;;;;;;;22.20;20.77;;;;;;;;;;4975764;28;20803;-79
2024/01/16 02:20:39;;;;;;;21.00;19.80;;;;;;;;;;4976546;28;20652;-79
2024/01/16 02:23:08;;;;;;;21.80;19.45;;;;;;;;;;4976432;28;20211;-79
2024/01/16 02:25:37;;;;;;;22.55;21.15;;;;;;;;;;4975863;28;20289;-79
2024/01/16 02:28:04;;;;;;;23.05;21.30;;;;;;;;;;4975749;28;20234;-79
2024/01/16 02:30:31;;;;;;;23.05;21.77;;;;;;;;;;4976492;28;20354;-79
2024/01/16 02:32:58;;;;;;;23.58;21.98;;;;;;;;;;4976404;28;20211;-79
2024/01/16 02:35:25;;;;;;;21.65;20.48;;;;;;;;;;4976070;28;20662;-79
2024/01/16 02:37:52;;;;;;;19.83;18.83;;;;;;;;;;4975740;28;20619;-79
2024/01/16 02:40:19;;;;;;;21.33;20.15;;;;;;;;;;4975783;28;20258;-79
2024/01/16 02:42:47;;;;;;;20.17;19.30;;;;;;;;;;4976408;28;20282;-78
2024/01/16 02:45:14;;;;;;;23.88;22.35;;;;;;;;;;4976105;28;20265;-80
2024/01/16 02:47:41;;;;;;;23.63;22.00;;;;;;;;;;4975388;28;20614;-79
2024/01/16 02:50:09;;;;;;;20.95;19.80;;;;;;;;;;4975593;28;20254;-78
2024/01/16 02:52:36;;;;;;;20.40;19.40;;;;;;;;;;4975720;28;20302;-79
2024/01/16 02:55:04;;;;;;;21.92;20.63;;;;;;;;;;4975653;28;20234;-79
2024/01/16 02:57:31;;;;;;;21.33;20.33;;;;;;;;;;4973793;28;20273;-78
2024/01/16 03:00:00;;;;;;;20.33;19.05;;;;;;;;;;4975449;28;20626;-79
2024/01/16 03:02:27;;;;;;;20.42;19.40;;;;;;;;;;4975785;28;20265;-79
2024/01/16 03:04:54;;;;;;;21.05;19.65;;;;;;;;;;4976327;28;20230;-79
2024/01/16 03:07:21;;;;;;;20.23;19.15;;;;;;;;;;4975346;28;20213;-79
2024/01/16 03:09:48;;;;;;;20.88;19.45;;;;;;;;;;4974585;28;20715;-78
2024/01/16 03:12:15;;;;;;;20.85;19.75;;;;;;;;;;4975844;28;20258;-80
2024/01/16 03:14:42;;;;;;;21.00;20.00;;;;;;;;;;4975730;28;20257;-79
2024/01/16 03:17:10;;;;;;;23.95;21.63;;;;;;;;;;4974907;28;20207;-79
2024/01/16 03:19:38;;;;;;;23.90;22.17;;;;;;;;;;4974919;28;20706;-79
2024/01/16 03:22:05;;;;;;;24.02;21.45;;;;;;;;;;4975129;28;20827;-79
2024/01/16 03:24:32;;;;;;;22.08;20.75;;;;;;;;;;4975256;28;20257;-79
2024/01/16 03:26:59;;;;;;;22.50;21.40;;;;;;;;;;4974758;28;20211;-79
2024/01/16 03:32:31;;;;;;;25.88;24.10;;;;;;;;;;4973349;28;20544;-78
2024/01/16 03:34:58;;;;;;;23.27;21.98;;;;;;;;;;4974093;28;20246;-79
2024/01/16 03:37:25;;;;;;;24.77;22.75;;;;;;;;;;4973929;28;20277;-78
2024/01/16 03:39:52;;;;;;;25.38;22.90;;;;;;;;;;4974106;28;20226;-79
2024/01/16 03:42:19;;;;;;;22.13;20.83;;;;;;;;;;4989715;28;20210;-81
2024/01/16 03:44:46;;;;;;;24.17;22.48;;;;;;;;;;4993474;28;20209;-78
2024/01/16 03:47:13;;;;;;;25.48;23.67;;;;;;;;;;4993639;28;20210;-78
2024/01/16 03:49:41;;;;;;;31.60;22.27;;;;;;;;;;4993799;28;20230;-79
2024/01/16 03:52:08;;;;;;;20.05;19.15;;;;;;;;;;4991239;28;20261;-79
2024/01/16 03:54:35;;;;;;;25.23;23.10;;;;;;;;;;4994017;28;20206;-78
2024/01/16 03:57:02;;;;;;;21.33;20.08;;;;;;;;;;4993515;28;20206;-79
2024/01/16 03:59:29;;;;;;;23.65;22.20;;;;;;;;;;4993455;28;20234;-78
2024/01/16 04:01:56;;;;;;;23.75;22.20;;;;;;;;;;4989731;28;20343;-79
2024/01/16 04:04:24;;;;;;;22.73;21.42;;;;;;;;;;4974165;28;20238;-79
2024/01/16 04:06:52;;;;;;;23.80;22.15;;;;;;;;;;4973652;28;20666;-79
2024/01/16 04:09:19;;;;;;;25.20;23.40;;;;;;;;;;4978413;28;20682;-79
2024/01/16 04:11:47;;;;;;;23.80;22.02;;;;;;;;;;4974166;28;20215;-78
2024/01/16 04:14:14;;;;;;;24.38;22.50;;;;;;;;;;4974526;28;20266;-79
2024/01/16 04:16:41;;;;;;;23.85;22.45;;;;;;;;;;4974142;28;20207;-79
2024/01/16 04:19:08;;;;;;;23.98;22.42;;;;;;;;;;4973727;28;20614;-79
2024/01/16 04:21:35;;;;;;;23.60;22.30;;;;;;;;;;4973833;28;20215;-78
2024/01/16 04:24:03;;;;;;;22.27;21.05;;;;;;;;;;4973815;28;20218;-78
2024/01/16 04:26:30;;;;;;;24.90;23.38;;;;;;;;;;4973459;28;20277;-79
2024/01/16 04:28:58;;;;;;;26.23;24.63;;;;;;;;;;4973151;28;20238;-79
2024/01/16 04:31:25;;;;;;;26.38;24.55;;;;;;;;;;4973257;28;20272;-78
2024/01/16 04:33:52;;;;;;;23.83;22.35;;;;;;;;;;4973686;28;20210;-78
2024/01/16 04:36:19;;;;;;;23.30;21.98;;;;;;;;;;4972960;28;20249;-78
2024/01/16 04:38:46;;;;;;;22.60;21.20;;;;;;;;;;4972533;28;20370;-79
2024/01/16 04:41:14;;;;;;;22.08;20.65;;;;;;;;;;4973091;28;20207;-79
2024/01/16 04:43:41;;;;;;;24.17;22.58;;;;;;;;;;4973483;28;20253;-79
2024/01/16 04:46:08;;;;;;;25.63;23.67;;;;;;;;;;4972821;28;20297;-80
2024/01/16 04:48:36;;;;;;;140.07;81.95;;;;;;;;;;4973033;28;20245;-80
2024/01/16 04:51:03;;;;;;;34.33;31.02;;;;;;;;;;4973407;28;20253;-80
2024/01/16 04:53:30;;;;;;;25.95;24.23;;;;;;;;;;4973106;28;20271;-79
2024/01/16 04:55:57;;;;;;;23.35;21.45;;;;;;;;;;4978858;28;20213;-79
2024/01/16 04:58:26;;;;;;;23.45;22.05;;;;;;;;;;4991975;28;20308;-80
2024/01/16 05:00:53;;;;;;;22.27;21.17;;;;;;;;;;4992449;28;20214;-80
2024/01/16 05:03:20;;;;;;;22.33;21.00;;;;;;;;;;4992081;28;20221;-79
2024/01/16 05:05:47;;;;;;;24.58;22.85;;;;;;;;;;4992239;28;20226;-79
2024/01/16 05:08:14;;;;;;;22.45;20.85;;;;;;;;;;4991459;28;20728;-79
2024/01/16 05:10:41;;;;;;;21.73;20.52;;;;;;;;;;4992120;28;20591;-79
2024/01/16 05:13:08;;;;;;;22.27;20.88;;;;;;;;;;4991413;28;20673;-79
2024/01/16 05:15:36;;;;;;;21.42;20.08;;;;;;;;;;4992053;28;20202;-78
2024/01/16 05:18:03;;;;;;;22.33;20.48;;;;;;;;;;4991618;28;20202;-79
2024/01/16 05:20:30;;;;;;;22.20;20.90;;;;;;;;;;4994255;28;20567;-79
2024/01/16 05:22:57;;;;;;;22.10;20.70;;;;;;;;;;4996040;28;20214;-79
2024/01/16 05:25:24;;;;;;;19.95;18.92;;;;;;;;;;4995997;28;20226;-78
2024/01/16 05:27:50;;;;;;;21.70;20.50;;;;;;;;;;4995948;28;20233;-79
2024/01/16 05:30:17;;;;;;;22.95;21.60;;;;;;;;;;4996105;28;20312;-78
2024/01/16 05:32:46;;;;;;;23.65;22.23;;;;;;;;;;4995987;28;20213;-79
2024/01/16 05:35:13;;;;;;;22.95;21.55;;;;;;;;;;4996367;28;20210;-79
2024/01/16 05:37:40;;;;;;;21.40;20.30;;;;;;;;;;4994673;28;20792;-79
2024/01/16 05:40:08;;;;;;;23.15;21.73;;;;;;;;;;4995626;28;20230;-80
2024/01/16 05:42:35;;;;;;;21.65;20.45;;;;;;;;;;5014708;28;20861;-78
2024/01/16 05:45:02;;;;;;;21.08;19.65;;;;;;;;;;5015807;28;20263;-80
2024/01/16 05:47:30;;;;;;;22.52;21.20;;;;;;;;;;5014831;28;20697;-78
2024/01/16 05:49:59;;;;;;;22.17;20.98;;;;;;;;;;5015435;28;20284;-78
2024/01/16 05:52:26;;;;;;;21.92;20.63;;;;;;;;;;5015232;28;20213;-79
2024/01/16 05:54:53;;;;;;;23.73;22.33;;;;;;;;;;5015398;28;20197;-79
2024/01/16 05:57:20;;;;;;;25.35;23.60;;;;;;;;;;5014232;28;20264;-79
2024/01/16 05:59:47;;;;;;;23.65;22.30;;;;;;;;;;5015193;28;20645;-79
2024/01/16 06:02:14;;;;;;;25.33;23.75;;;;;;;;;;5014924;28;20206;-79
2024/01/16 06:04:41;;;;;;;22.98;21.83;;;;;;;;;;4997780;28;20229;-78
2024/01/16 06:07:09;;;;;;;22.65;21.35;;;;;;;;;;4994743;28;20238;-79
2024/01/16 06:09:40;;;;;;;21.50;20.48;;;;;;;;;;4979782;28;20521;-80
2024/01/16 06:12:07;;;;;;;21.55;20.42;;;;;;;;;;4976009;28;20226;-79
2024/01/16 06:14:34;;;;;;;24.75;22.95;;;;;;;;;;4994307;28;20214;-78
2024/01/16 06:17:03;;;;;;;23.00;21.60;;;;;;;;;;4994811;28;20272;-78
2024/01/16 06:19:30;;;;;;;21.27;19.65;;;;;;;;;;4994957;28;20234;-78
2024/01/16 06:21:57;;;;;;;21.83;20.50;;;;;;;;;;4995345;28;20214;-79
2024/01/16 06:24:25;;;;;;;22.05;20.83;;;;;;;;;;4994694;28;20214;-79
2024/01/16 06:26:52;;;;;;;22.10;20.67;;;;;;;;;;4994664;28;20234;-78
2024/01/16 06:29:19;;;;;;;25.42;23.50;;;;;;;;;;4995041;28;20289;-79
2024/01/16 06:31:46;;;;;;;23.20;21.88;;;;;;;;;;4994722;28;20431;-79
2024/01/16 06:34:13;;;;;;;23.90;22.30;;;;;;;;;;4994771;28;20245;-80
2024/01/16 06:36:40;;;;;;;24.42;22.75;;;;;;;;;;4994466;28;20207;-79
2024/01/16 06:39:07;;;;;;;27.08;24.40;;;;;;;;;;4994486;28;20261;-78
2024/01/16 06:41:35;;;;;;;23.15;21.90;;;;;;;;;;4994758;28;20214;-79
2024/01/16 06:44:02;;;;;;;24.90;22.73;;;;;;;;;;4994762;28;20214;-79
2024/01/16 06:46:29;;;;;;;26.30;24.15;;;;;;;;;;4994552;28;20214;-79
2024/01/16 06:48:56;;;;;;;21.85;20.48;;;;;;;;;;4994557;28;20226;-78
2024/01/16 06:51:23;;;;;;;25.10;23.20;;;;;;;;;;4994418;28;20205;-79
2024/01/16 06:53:50;;;;;;;23.75;21.98;;;;;;;;;;4994037;28;20339;-78
2024/01/16 06:56:17;;;;;;;26.73;24.48;;;;;;;;;;4983576;28;20203;-79
2024/01/16 06:58:46;;;;;;;26.80;24.30;;;;;;;;;;4993442;28;20796;-80
2024/01/16 07:01:14;;;;;;;23.35;21.67;;;;;;;;;;4994489;28;20277;-79
2024/01/16 07:03:41;;;;;;;22.05;20.85;;;;;;;;;;4994529;28;20885;-79
2024/01/16 07:06:08;;;;;;;25.40;23.30;;;;;;;;;;4993274;28;20230;-79
2024/01/16 07:08:35;;;;;;;22.75;21.45;;;;;;;;;;4994772;28;20226;-78
2024/01/16 07:11:02;;;;;;;23.00;21.80;;;;;;;;;;4994098;28;20218;-79
2024/01/16 07:13:30;;;;;;;25.65;23.75;;;;;;;;;;4994027;28;20210;-78
2024/01/16 07:15:58;;;;;;;23.10;21.60;;;;;;;;;;4993917;28;20218;-79
2024/01/16 07:18:25;;;;;;;22.15;20.80;;;;;;;;;;4993718;28;20234;-79
2024/01/16 07:20:52;;;;;;;31.63;25.52;;;;;;;;;;4994417;28;20210;-79
2024/01/16 07:23:19;;;;;;;25.23;23.42;;;;;;;;;;4994591;28;20207;-79
2024/01/16 07:25:46;;;;;;;22.77;21.15;;;;;;;;;;4987767;28;20559;-79
2024/01/16 07:28:14;;;;;;;21.33;20.15;;;;;;;;;;4973652;28;20206;-78
2024/01/16 07:30:41;;;;;;;22.02;20.60;;;;;;;;;;4974711;28;20566;-78
2024/01/16 07:33:09;;;;;;;26.02;23.83;;;;;;;;;;4974546;28;20214;-79
2024/01/16 07:35:37;;;;;;;26.05;23.42;;;;;;;;;;4974782;28;20239;-79
2024/01/16 07:38:04;;;;;;;27.65;25.55;;;;;;;;;;4984571;28;20717;-79
2024/01/16 07:40:31;;;;;;;24.55;22.50;;;;;;;;;;4994401;28;20265;-80
2024/01/16 07:42:58;;;;;;;20.98;19.77;;;;;;;;;;4992379;28;20206;-79
2024/01/16 07:45:25;;;;;;;24.20;22.13;;;;;;;;;;4983638;28;20238;-79
2024/01/16 07:47:52;;;;;;;26.05;24.05;;;;;;;;;;4977130;28;20230;-80
2024/01/16 07:50:21;;;;;;;26.75;24.35;;;;;;;;;;4976810;28;20699;-87
2024/01/16 07:52:48;;;;;;;25.27;23.52;;;;;;;;;;4978464;28;20215;-80
2024/01/16 07:55:15;;;;;;;24.00;22.20;;;;;;;;;;4974293;28;20210;-79
2024/01/16 07:57:42;;;;;;;23.55;22.02;;;;;;;;;;4974530;28;20902;-79
2024/01/16 08:00:11;;;;;;;24.58;22.33;;;;;;;;;;4974618;28;20226;-77
2024/01/16 08:02:39;;;;;;;21.15;20.05;;;;;;;;;;4973389;28;20214;-77
2024/01/16 08:05:06;;;;;;;22.08;20.48;;;;;;;;;;4973328;28;20293;-76
2024/01/16 08:07:35;;;;;;;24.80;23.20;;;;;;;;;;4971665;28;20395;-77
2024/01/16 08:10:02;;;;;;;25.27;23.33;;;;;;;;;;4989278;28;20234;-78
2024/01/16 08:12:29;;;;;;;21.40;20.30;;;;;;;;;;4982666;28;20215;-77
2024/01/16 08:14:56;;;;;;;24.35;22.08;;;;;;;;;;4973147;28;20211;-77
2024/01/16 08:17:23;;;;;;;21.23;20.23;;;;;;;;;;4971771;28;20265;-77
2024/01/16 08:19:50;;;;;;;20.02;18.95;;;;;;;;;;4972675;28;20761;-77
2024/01/16 08:22:17;;;;;;;23.08;21.38;;;;;;;;;;4972437;28;20738;-77
2024/01/16 08:24:45;;;;;;;20.88;19.65;;;;;;;;;;4973092;28;20618;-77
2024/01/16 08:27:12;;;;;;;26.10;24.00;;;;;;;;;;4971723;28;20309;-77
2024/01/16 08:29:39;;;;;;;21.95;20.48;;;;;;;;;;4972362;28;20293;-77
2024/01/16 08:32:06;;;;;;;21.02;19.90;;;;;;;;;;4972610;28;20258;-76
2024/01/16 08:34:33;;;;;;;23.27;21.75;;;;;;;;;;4972927;28;20671;-77
2024/01/16 08:37:00;;;;;;;23.75;22.13;;;;;;;;;;4971713;28;20773;-78
2024/01/16 08:39:28;;;;;;;24.05;21.95;;;;;;;;;;4973554;28;20615;-78
2024/01/16 08:41:57;;;;;;;19.35;18.48;;;;;;;;;;4980026;28;20214;-78
2024/01/16 08:44:24;;;;;;;21.40;19.90;;;;;;;;;;4992613;28;20202;-78
2024/01/16 08:46:51;;;;;;;22.98;21.08;;;;;;;;;;4990950;28;20284;-77
2024/01/16 08:49:18;;;;;;;23.58;22.17;;;;;;;;;;4982063;28;20266;-78
2024/01/16 08:51:45;;;;;;;21.83;20.60;;;;;;;;;;4972867;28;20268;-78
2024/01/16 08:54:12;;;;;;;20.17;19.17;;;;;;;;;;4972627;28;20253;-78
2024/01/16 08:56:39;;;;;;;23.38;21.45;;;;;;;;;;4971662;28;20254;-78
2024/01/16 08:59:08;;;;;;;23.83;22.13;;;;;;;;;;4980316;28;20237;-78
2024/01/16 09:01:35;;;;;;;23.67;21.88;;;;;;;;;;4992455;28;20670;-83
2024/01/16 09:04:02;;;;;;;21.08;19.60;;;;;;;;;;4992881;28;20304;-78
2024/01/16 09:06:29;;;;;;;21.92;20.60;;;;;;;;;;4990986;28;20226;-77
2024/01/16 09:08:56;;;;;;;23.98;22.17;;;;;;;;;;4990585;28;20233;-77
2024/01/16 09:11:23;;;;;;;25.77;23.23;;;;;;;;;;4991670;28;20241;-77
2024/01/16 09:13:50;;;;;;;24.05;22.08;;;;;;;;;;4992154;28;20209;-78
2024/01/16 09:16:18;;;;;;;22.88;21.38;;;;;;;;;;4982435;28;20206;-77
2024/01/16 09:18:46;;;;;;;22.70;21.20;;;;;;;;;;4971475;28;20230;-77
2024/01/16 09:21:12;;;;;;;22.42;21.02;;;;;;;;;;4972512;28;20217;-78
2024/01/16 09:23:39;;;;;;;20.52;19.33;;;;;;;;;;4972373;28;20618;-77
2024/01/16 09:26:06;;;;;;;22.55;20.73;;;;;;;;;;4972102;28;20618;-78
2024/01/16 09:28:33;;;;;;;22.10;20.70;;;;;;;;;;4971958;28;20617;-77
2024/01/16 09:31:00;;;;;;;21.95;20.60;;;;;;;;;;4973466;28;20269;-77
2024/01/16 09:33:29;;;;;;;22.77;21.05;;;;;;;;;;4972323;28;20206;-76
2024/01/16 09:35:56;;;;;;;20.83;19.73;;;;;;;;;;4971906;28;20207;-78
2024/01/16 09:38:23;;;;;;;21.65;20.48;;;;;;;;;;4971145;28;20218;-77
2024/01/16 09:40:50;;;;;;;19.85;18.85;;;;;;;;;;4971967;28;20210;-77
2024/01/16 09:43:17;;;;;;;20.45;19.35;;;;;;;;;;4973467;28;20622;-77
2024/01/16 09:45:44;;;;;;;19.92;18.88;;;;;;;;;;4986768;28;20206;-77
2024/01/16 09:48:12;;;;;;;23.70;21.58;;;;;;;;;;4990388;28;20292;-77
2024/01/16 09:50:40;;;;;;;21.17;19.83;;;;;;;;;;4991393;28;20210;-77
2024/01/16 09:53:07;;;;;;;20.02;18.92;;;;;;;;;;4991519;28;20544;-77
2024/01/16 09:55:34;;;;;;;23.27;21.58;;;;;;;;;;4991401;28;20214;-77
2024/01/16 09:58:03;;;;;;;24.95;23.00;;;;;;;;;;4990368;28;20214;-76
2024/01/16 10:00:31;;;;;;;22.55;20.77;;;;;;;;;;4991102;28;20214;-77
2024/01/16 10:02:58;;;;;;;23.15;21.27;;;;;;;;;;4991373;28;20206;-76
2024/01/16 10:05:26;;;;;;;23.75;22.08;;;;;;;;;;4991487;28;20202;-77
2024/01/16 10:07:54;;;;;;;41.67;30.52;;;;;;;;;;4993946;28;20224;-77
2024/01/16 10:10:22;;;;;;;25.10;23.30;;;;;;;;;;4994470;28;20242;-77
2024/01/16 10:12:50;;;;;;;27.65;25.17;;;;;;;;;;4994653;28;20543;-77
2024/01/16 10:15:17;;;;;;;25.95;24.02;;;;;;;;;;4994652;28;20210;-77
2024/01/16 10:17:44;;;;;;;31.65;28.83;;;;;;;;;;4993886;28;20621;-77
2024/01/16 10:20:13;;;;;;;32.58;29.83;;;;;;;;;;4993618;28;20687;-76
2024/01/16 10:22:40;;;;;;;24.90;23.08;;;;;;;;;;4994436;28;20217;-77
2024/01/16 10:25:10;;;;;;;28.23;26.05;;;;;;;;;;4994361;28;20214;-76
2024/01/16 10:27:37;;;;;;;25.17;22.90;;;;;;;;;;4993986;28;20233;-77
2024/01/16 10:30:05;;;;;;;27.58;24.83;;;;;;;;;;4993527;28;20288;-77
2024/01/16 10:32:32;;;;;;;25.77;23.98;;;;;;;;;;4995794;28;20206;-79
2024/01/16 10:35:04;;;;;;;31.60;28.80;;;;;;;;;;4989170;28;20214;-79
2024/01/16 10:37:31;;;;;;;27.75;25.80;;;;;;;;;;4976064;28;20210;-78
2024/01/16 10:39:58;;;;;;;32.50;29.80;;;;;;;;;;4975888;28;20289;-79
2024/01/16 10:42:26;;;;;;;27.48;25.38;;;;;;;;;;4976182;28;20207;-78
2024/01/16 10:44:56;;;;;;;28.42;26.27;;;;;;;;;;4977407;28;20254;-79
2024/01/16 10:47:23;;;;;;;31.95;28.75;;;;;;;;;;4976616;28;20256;-79
2024/01/16 10:49:50;;;;;;;25.33;23.52;;;;;;;;;;4976231;28;20802;-78
2024/01/16 10:52:19;;;;;;;31.40;28.23;;;;;;;;;;4977224;28;20210;-79
2024/01/16 10:54:49;;;;;;;27.95;25.60;;;;;;;;;;4976998;28;20223;-79
2024/01/16 10:57:16;;;;;;;30.85;27.95;;;;;;;;;;4976122;28;20557;-78
2024/01/16 10:59:50;;;;;;;26.75;25.05;;;;;;;;;;4976068;28;20568;-79
2024/01/16 11:02:21;;;;;;;33.13;29.63;;;;;;;;;;4976330;28;20745;-79
2024/01/16 11:04:49;;;;;;;31.83;29.00;;;;;;;;;;4975867;28;20206;-78
2024/01/16 11:07:16;;;;;;;30.63;27.88;;;;;;;;;;4975995;28;20223;-78
2024/01/16 11:09:44;;;;;;;25.50;23.77;;;;;;;;;;4975493;28;20234;-78
2024/01/16 11:12:16;;;;;;;31.23;28.25;;;;;;;;;;4976318;28;20265;-78
2024/01/16 11:14:43;;;;;;;28.50;26.60;;;;;;;;;;4976402;28;20219;-79
2024/01/16 11:17:17;;;;;;;26.95;24.33;;;;;;;;;;4975048;28;20234;-79
2024/01/16 11:19:45;;;;;;;25.23;23.25;;;;;;;;;;4975440;28;20229;-78
2024/01/16 11:22:12;;;;;;;28.60;26.02;;;;;;;;;;4976445;28;20199;-79
2024/01/16 11:24:39;;;;;;;23.67;21.95;;;;;;;;;;4976741;28;20211;-78
2024/01/16 11:27:08;;;;;;;22.13;20.90;;;;;;;;;;4976065;28;20208;-78
2024/01/16 11:29:36;;;;;;;24.25;22.85;;;;;;;;;;4975974;28;20586;-79
2024/01/16 11:32:03;;;;;;;26.23;24.73;;;;;;;;;;4975945;28;20209;-80
2024/01/16 11:34:48;;;;;;;22.55;21.23;;;;;;;;;;4975716;28;20215;-79
2024/01/16 11:37:16;;;;;;;27.38;24.45;;;;;;;;;;4975088;28;20229;-79
2024/01/16 11:39:43;;;;;;;21.77;20.10;;;;;;;;;;4975897;28;20250;-79
2024/01/16 11:42:10;;;;;;;26.05;24.27;;;;;;;;;;4975545;28;20589;-79
2024/01/16 11:44:37;;;;;;;23.55;22.23;;;;;;;;;;4975607;28;20265;-78
2024/01/16 11:47:04;;;;;;;24.95;23.10;;;;;;;;;;4974779;28;20663;-79
2024/01/16 11:49:32;;;;;;;25.25;23.67;;;;;;;;;;4988576;28;20312;-78
2024/01/16 11:51:59;;;;;;;23.15;21.50;;;;;;;;;;4973974;28;20581;-78
2024/01/16 11:54:27;;;;;;;23.80;21.92;;;;;;;;;;4974582;28;20218;-78
2024/01/16 11:57:14;;;;;;;24.13;21.92;;;;;;;;;;4973851;28;20214;-78
2024/01/16 12:00:09;;;;;;;22.35;21.05;;;;;;;;;;4974969;28;20237;-78
2024/01/16 12:02:43;;;;;;;23.45;21.55;;;;;;;;;;4957963;28;20219;-78
2024/01/16 12:05:11;;;;;;;24.00;21.77;;;;;;;;;;4974257;28;20233;-78
2024/01/16 12:07:44;;;;;;;25.13;23.08;;;;;;;;;;4973585;28;20234;-79
2024/01/16 12:10:13;;;;;;;20.35;19.25;;;;;;;;;;4990096;28;20230;-78
2024/01/16 12:12:40;;;;;;;23.25;21.52;;;;;;;;;;4993645;28;20310;-78
2024/01/16 12:15:07;;;;;;;24.42;22.33;;;;;;;;;;4994254;28;20281;-78
2024/01/16 12:17:34;;;;;;;26.88;24.35;;;;;;;;;;4994277;28;20202;-79
2024/01/16 12:20:01;;;;;;;23.85;21.70;;;;;;;;;;4993342;28;20698;-78
2024/01/16 12:22:28;;;;;;;23.58;21.48;;;;;;;;;;4995901;28;20305;-79
2024/01/16 12:24:58;;;;;;;20.90;19.50;;;;;;;;;;4994753;28;20606;-78
2024/01/16 12:27:27;;;;;;;23.90;22.25;;;;;;;;;;4994684;28;20218;-78
2024/01/16 12:30:07;;;;;;;22.95;20.63;;;;;;;;;;4993365;28;20222;-78
2024/01/16 12:32:34;;;;;;;23.83;22.38;;;;;;;;;;4993436;28;20253;-78
2024/01/16 12:35:01;;;;;;;23.33;21.63;;;;;;;;;;4994461;28;20218;-79
2024/01/16 12:37:28;;;;;;;19.42;18.42;;;;;;;;;;4993584;28;20206;-79
2024/01/16 12:39:57;;;;;;;21.27;19.60;;;;;;;;;;4993722;28;20614;-79
2024/01/16 12:42:25;;;;;;;22.40;20.95;;;;;;;;;;4993734;28;20220;-78
2024/01/16 12:44:54;;;;;;;21.63;20.33;;;;;;;;;;4993949;28;20206;-79
2024/01/16 12:47:22;;;;;;;19.92;18.65;;;;;;;;;;4993012;28;20218;-78
2024/01/16 12:49:49;;;;;;;20.92;19.45;;;;;;;;;;4993393;28;20230;-79
2024/01/16 12:52:17;;;;;;;23.02;21.10;;;;;;;;;;4993226;28;20210;-79
2024/01/16 12:54:44;;;;;;;20.02;18.92;;;;;;;;;;4988091;28;20210;-79
2024/01/16 12:57:13;;;;;;;22.35;20.75;;;;;;;;;;4988015;28;20215;-79
2024/01/16 12:59:40;;;;;;;21.10;19.58;;;;;;;;;;4975534;28;20314;-78
2024/01/16 13:02:11;;;;;;;22.30;20.70;;;;;;;;;;4993684;28;20305;-78
2024/01/16 13:04:38;;;;;;;19.95;18.80;;;;;;;;;;4994148;28;20206;-79
2024/01/16 13:07:06;;;;;;;20.88;19.70;;;;;;;;;;4993172;28;20206;-79
2024/01/16 13:09:32;;;;;;;20.80;19.60;;;;;;;;;;4993523;28;20265;-79
2024/01/16 13:12:00;;;;;;;21.50;19.92;;;;;;;;;;4993627;28;20206;-80
2024/01/16 13:14:27;;;;;;;21.40;19.90;;;;;;;;;;4993665;28;20234;-79
2024/01/16 13:16:56;;;;;;;22.25;20.70;;;;;;;;;;4992622;28;20637;-78
2024/01/16 13:19:24;;;;;;;23.80;20.40;;;;;;;;;;4974461;28;20226;-79
2024/01/16 13:21:51;;;;;;;22.85;20.55;;;;;;;;;;4974589;28;20221;-78
2024/01/16 13:24:21;;;;;;;21.02;19.63;;;;;;;;;;4974448;28;20214;-79
2024/01/16 13:26:48;;;;;;;23.17;21.30;;;;;;;;;;4974478;28;20303;-79
2024/01/16 13:29:15;;;;;;;21.08;19.25;;;;;;;;;;4974427;28;20922;-80
2024/01/16 13:31:43;;;;;;;20.50;19.40;;;;;;;;;;4974280;28;20214;-79
2024/01/16 13:34:10;;;;;;;19.25;18.17;;;;;;;;;;4974450;28;20215;-79
2024/01/16 13:36:38;;;;;;;20.40;19.15;;;;;;;;;;4974253;28;20567;-79
2024/01/16 13:39:12;;;;;;;20.35;19.05;;;;;;;;;;4974623;28;20230;-79
2024/01/16 13:41:39;;;;;;;22.45;20.42;;;;;;;;;;4976757;28;20215;-79
2024/01/16 13:44:06;;;;;;;20.08;19.00;;;;;;;;;;4977649;28;20245;-79
2024/01/16 13:46:33;;;;;;;21.38;19.98;;;;;;;;;;4977711;28;20202;-79
2024/01/16 13:49:00;;;;;;;22.40;20.90;;;;;;;;;;4977337;28;20277;-78
2024/01/16 13:51:28;;;;;;;23.67;21.75;;;;;;;;;;4978906;28;20568;-78
2024/01/16 13:53:57;;;;;;;22.85;21.45;;;;;;;;;;5014707;28;20292;-78
2024/01/16 13:56:24;;;;;;;23.98;22.08;;;;;;;;;;5015611;28;20259;-78
2024/01/16 13:58:51;;;;;;;24.90;23.25;;;;;;;;;;5015556;28;20226;-78
2024/01/16 14:01:19;;;;;;;22.35;20.73;;;;;;;;;;5016090;28;20240;-76
2024/01/16 14:03:47;;;;;;;21.95;20.58;;;;;;;;;;5002721;28;20242;-78
2024/01/16 14:06:15;;;;;;;38.08;21.85;;;;;;;;;;5003501;28;20210;-79
2024/01/16 14:08:42;;;;;;;23.13;21.27;;;;;;;;;;5001491;28;20230;-78
2024/01/16 14:11:10;;;;;;;22.20;20.35;;;;;;;;;;4998811;28;20682;-80
2024/01/16 14:13:37;;;;;;;22.23;20.70;;;;;;;;;;4994606;28;20626;-74
2024/01/16 14:16:05;;;;;;;22.08;20.00;;;;;;;;;;4994329;28;20285;-75
2024/01/16 14:18:32;;;;;;;19.45;18.55;;;;;;;;;;4992060;28;20226;-75
2024/01/16 14:20:59;;;;;;;19.90;18.80;;;;;;;;;;4993426;28;20628;-76